sensor_id;sensor_type;location;lat;lon;timestamp;P1;durP1;ratioP1;P2;durP2;ratioP2
79644;SDS011;69117;47.148;18.954;2024-02-16T00:01:16;12.82;;;6.82;;
79644;SDS011;69117;47.148;18.954;2024-02-16T00:04:17;9.13;;;5.70;;
79644;SDS011;69117;47.148;18.954;2024-02-16T00:07:19;8.68;;;6.78;;
79644;SDS011;69117;47.148;18.954;2024-02-16T00:10:21;12.55;;;6.55;;
79644;SDS011;69117;47.148;18.954;2024-02-16T00:13:23;11.77;;;7.47;;
79644;SDS011;69117;47.148;18.954;2024-02-16T00:16:24;19.10;;;7.38;;
79644;SDS011;69117;47.148;18.954;2024-02-16T00:19:27;14.32;;;6.72;;
79644;SDS011;69117;47.148;18.954;2024-02-16T00:22:29;11.43;;;6.78;;
79644;SDS011;69117;47.148;18.954;2024-02-16T00:25:31;14.18;;;6.07;;
79644;SDS011;69117;47.148;18.954;2024-02-16T00:28:33;9.93;;;6.60;;
79644;SDS011;69117;47.148;18.954;2024-02-16T00:31:42;11.05;;;5.35;;
79644;SDS011;69117;47.148;18.954;2024-02-16T00:34:43;7.45;;;4.30;;
79644;SDS011;69117;47.148;18.954;2024-02-16T00:37:45;10.57;;;5.57;;
79644;SDS011;69117;47.148;18.954;2024-02-16T00:40:47;10.25;;;5.55;;
79644;SDS011;69117;47.148;18.954;2024-02-16T00:43:49;8.10;;;6.53;;
79644;SDS011;69117;47.148;18.954;2024-02-16T00:46:52;10.77;;;5.40;;
79644;SDS011;69117;47.148;18.954;2024-02-16T00:49:53;10.60;;;4.13;;
79644;SDS011;69117;47.148;18.954;2024-02-16T00:52:55;7.88;;;4.30;;
79644;SDS011;69117;47.148;18.954;2024-02-16T00:55:57;9.13;;;5.75;;
79644;SDS011;69117;47.148;18.954;2024-02-16T00:58:59;8.82;;;5.25;;
79644;SDS011;69117;47.148;18.954;2024-02-16T01:02:00;13.00;;;4.53;;
79644;SDS011;69117;47.148;18.954;2024-02-16T01:05:02;13.50;;;5.22;;
79644;SDS011;69117;47.148;18.954;2024-02-16T01:08:04;8.93;;;5.28;;
79644;SDS011;69117;47.148;18.954;2024-02-16T01:11:06;11.77;;;6.20;;
79644;SDS011;69117;47.148;18.954;2024-02-16T01:14:09;11.90;;;5.65;;
79644;SDS011;69117;47.148;18.954;2024-02-16T01:17:10;6.75;;;4.32;;
79644;SDS011;69117;47.148;18.954;2024-02-16T01:20:12;14.63;;;5.55;;
79644;SDS011;69117;47.148;18.954;2024-02-16T01:23:14;11.65;;;6.07;;
79644;SDS011;69117;47.148;18.954;2024-02-16T01:26:15;14.00;;;6.90;;
79644;SDS011;69117;47.148;18.954;2024-02-16T01:29:17;17.27;;;5.95;;
79644;SDS011;69117;47.148;18.954;2024-02-16T01:32:19;10.40;;;4.85;;
79644;SDS011;69117;47.148;18.954;2024-02-16T01:35:20;17.00;;;6.35;;
79644;SDS011;69117;47.148;18.954;2024-02-16T01:38:22;14.65;;;5.30;;
79644;SDS011;69117;47.148;18.954;2024-02-16T01:41:24;12.13;;;5.95;;
79644;SDS011;69117;47.148;18.954;2024-02-16T01:44:25;9.05;;;5.38;;
79644;SDS011;69117;47.148;18.954;2024-02-16T01:47:27;8.57;;;5.78;;
79644;SDS011;69117;47.148;18.954;2024-02-16T01:50:29;11.60;;;6.05;;
79644;SDS011;69117;47.148;18.954;2024-02-16T01:53:33;13.57;;;5.53;;
79644;SDS011;69117;47.148;18.954;2024-02-16T01:56:35;10.57;;;5.20;;
79644;SDS011;69117;47.148;18.954;2024-02-16T01:59:37;11.48;;;5.05;;
79644;SDS011;69117;47.148;18.954;2024-02-16T02:02:41;9.48;;;5.22;;
79644;SDS011;69117;47.148;18.954;2024-02-16T02:05:46;8.88;;;4.35;;
79644;SDS011;69117;47.148;18.954;2024-02-16T02:08:48;8.65;;;4.15;;
79644;SDS011;69117;47.148;18.954;2024-02-16T02:11:50;11.77;;;6.05;;
79644;SDS011;69117;47.148;18.954;2024-02-16T02:14:53;13.55;;;5.93;;
79644;SDS011;69117;47.148;18.954;2024-02-16T02:17:55;9.63;;;5.05;;
79644;SDS011;69117;47.148;18.954;2024-02-16T02:20:56;9.82;;;4.25;;
79644;SDS011;69117;47.148;18.954;2024-02-16T02:23:58;13.68;;;5.38;;
79644;SDS011;69117;47.148;18.954;2024-02-16T02:27:00;6.97;;;5.07;;
79644;SDS011;69117;47.148;18.954;2024-02-16T02:30:02;12.07;;;4.32;;
79644;SDS011;69117;47.148;18.954;2024-02-16T02:33:04;10.70;;;5.35;;
79644;SDS011;69117;47.148;18.954;2024-02-16T02:36:06;9.68;;;5.78;;
79644;SDS011;69117;47.148;18.954;2024-02-16T02:39:08;11.50;;;4.70;;
79644;SDS011;69117;47.148;18.954;2024-02-16T02:42:10;23.58;;;6.57;;
79644;SDS011;69117;47.148;18.954;2024-02-16T02:45:11;8.80;;;5.25;;
79644;SDS011;69117;47.148;18.954;2024-02-16T02:48:13;9.52;;;4.30;;
79644;SDS011;69117;47.148;18.954;2024-02-16T02:51:15;8.35;;;4.78;;
79644;SDS011;69117;47.148;18.954;2024-02-16T02:54:17;8.95;;;4.63;;
79644;SDS011;69117;47.148;18.954;2024-02-16T02:57:21;8.25;;;3.95;;
79644;SDS011;69117;47.148;18.954;2024-02-16T03:00:23;10.75;;;5.95;;
79644;SDS011;69117;47.148;18.954;2024-02-16T03:03:27;15.82;;;5.90;;
79644;SDS011;69117;47.148;18.954;2024-02-16T03:06:29;11.07;;;5.55;;
79644;SDS011;69117;47.148;18.954;2024-02-16T03:09:30;8.40;;;4.70;;
79644;SDS011;69117;47.148;18.954;2024-02-16T03:12:32;9.77;;;4.82;;
79644;SDS011;69117;47.148;18.954;2024-02-16T03:15:34;15.20;;;4.78;;
79644;SDS011;69117;47.148;18.954;2024-02-16T03:18:37;9.55;;;4.85;;
79644;SDS011;69117;47.148;18.954;2024-02-16T03:21:39;9.57;;;3.88;;
79644;SDS011;69117;47.148;18.954;2024-02-16T03:24:40;8.10;;;4.88;;
79644;SDS011;69117;47.148;18.954;2024-02-16T03:27:42;8.52;;;5.07;;
79644;SDS011;69117;47.148;18.954;2024-02-16T03:30:44;8.38;;;5.15;;
79644;SDS011;69117;47.148;18.954;2024-02-16T03:33:46;8.13;;;3.95;;
79644;SDS011;69117;47.148;18.954;2024-02-16T03:36:48;8.73;;;4.45;;
79644;SDS011;69117;47.148;18.954;2024-02-16T03:39:50;7.35;;;4.07;;
79644;SDS011;69117;47.148;18.954;2024-02-16T03:42:52;6.60;;;4.50;;
79644;SDS011;69117;47.148;18.954;2024-02-16T03:45:54;11.52;;;4.25;;
79644;SDS011;69117;47.148;18.954;2024-02-16T03:51:57;6.05;;;3.78;;
79644;SDS011;69117;47.148;18.954;2024-02-16T03:55:01;8.30;;;4.50;;
79644;SDS011;69117;47.148;18.954;2024-02-16T03:58:03;9.43;;;3.65;;
79644;SDS011;69117;47.148;18.954;2024-02-16T04:01:05;11.02;;;5.03;;
79644;SDS011;69117;47.148;18.954;2024-02-16T04:04:08;7.35;;;4.53;;
79644;SDS011;69117;47.148;18.954;2024-02-16T04:07:10;9.27;;;4.60;;
79644;SDS011;69117;47.148;18.954;2024-02-16T04:10:12;8.27;;;5.25;;
79644;SDS011;69117;47.148;18.954;2024-02-16T04:13:13;10.20;;;4.45;;
79644;SDS011;69117;47.148;18.954;2024-02-16T04:19:17;6.72;;;4.20;;
79644;SDS011;69117;47.148;18.954;2024-02-16T04:22:19;8.88;;;3.97;;
79644;SDS011;69117;47.148;18.954;2024-02-16T04:28:22;8.00;;;4.93;;
79644;SDS011;69117;47.148;18.954;2024-02-16T04:31:25;10.40;;;5.28;;
79644;SDS011;69117;47.148;18.954;2024-02-16T04:34:27;6.35;;;3.80;;
79644;SDS011;69117;47.148;18.954;2024-02-16T04:37:30;5.40;;;3.42;;
79644;SDS011;69117;47.148;18.954;2024-02-16T04:43:37;7.00;;;3.47;;
79644;SDS011;69117;47.148;18.954;2024-02-16T04:46:40;4.78;;;3.83;;
79644;SDS011;69117;47.148;18.954;2024-02-16T04:49:43;7.00;;;3.63;;
79644;SDS011;69117;47.148;18.954;2024-02-16T04:52:44;8.65;;;3.40;;
79644;SDS011;69117;47.148;18.954;2024-02-16T04:55:46;13.15;;;5.15;;
79644;SDS011;69117;47.148;18.954;2024-02-16T04:58:48;12.80;;;4.53;;
79644;SDS011;69117;47.148;18.954;2024-02-16T05:04:51;5.22;;;2.97;;
79644;SDS011;69117;47.148;18.954;2024-02-16T05:10:54;3.85;;;2.28;;
79644;SDS011;69117;47.148;18.954;2024-02-16T05:13:56;6.88;;;3.78;;
79644;SDS011;69117;47.148;18.954;2024-02-16T05:16:58;8.38;;;4.63;;
79644;SDS011;69117;47.148;18.954;2024-02-16T05:20:00;10.27;;;3.50;;
79644;SDS011;69117;47.148;18.954;2024-02-16T05:23:02;10.32;;;4.63;;
79644;SDS011;69117;47.148;18.954;2024-02-16T05:26:04;9.45;;;4.75;;
79644;SDS011;69117;47.148;18.954;2024-02-16T05:32:07;6.82;;;3.80;;
79644;SDS011;69117;47.148;18.954;2024-02-16T05:38:15;7.38;;;2.65;;
79644;SDS011;69117;47.148;18.954;2024-02-16T05:41:34;8.98;;;3.92;;
79644;SDS011;69117;47.148;18.954;2024-02-16T05:44:38;9.07;;;4.15;;
79644;SDS011;69117;47.148;18.954;2024-02-16T05:47:40;8.80;;;5.05;;
79644;SDS011;69117;47.148;18.954;2024-02-16T05:50:47;10.30;;;3.55;;
79644;SDS011;69117;47.148;18.954;2024-02-16T05:53:49;6.55;;;4.22;;
79644;SDS011;69117;47.148;18.954;2024-02-16T05:56:50;11.38;;;4.75;;
79644;SDS011;69117;47.148;18.954;2024-02-16T05:59:52;7.88;;;3.80;;
79644;SDS011;69117;47.148;18.954;2024-02-16T06:02:56;8.32;;;3.97;;
79644;SDS011;69117;47.148;18.954;2024-02-16T06:05:57;9.23;;;4.85;;
79644;SDS011;69117;47.148;18.954;2024-02-16T06:08:59;5.43;;;3.42;;
79644;SDS011;69117;47.148;18.954;2024-02-16T06:15:05;6.90;;;3.72;;
79644;SDS011;69117;47.148;18.954;2024-02-16T06:18:07;11.02;;;4.53;;
79644;SDS011;69117;47.148;18.954;2024-02-16T06:21:08;10.55;;;4.88;;
79644;SDS011;69117;47.148;18.954;2024-02-16T06:24:10;9.75;;;4.82;;
79644;SDS011;69117;47.148;18.954;2024-02-16T06:27:12;12.63;;;5.53;;
79644;SDS011;69117;47.148;18.954;2024-02-16T06:33:18;7.22;;;2.92;;
79644;SDS011;69117;47.148;18.954;2024-02-16T06:36:20;6.65;;;3.90;;
79644;SDS011;69117;47.148;18.954;2024-02-16T06:42:23;15.10;;;4.53;;
79644;SDS011;69117;47.148;18.954;2024-02-16T06:45:25;12.00;;;4.70;;
79644;SDS011;69117;47.148;18.954;2024-02-16T06:48:27;10.23;;;5.18;;
79644;SDS011;69117;47.148;18.954;2024-02-16T06:51:29;10.13;;;5.07;;
79644;SDS011;69117;47.148;18.954;2024-02-16T06:54:30;12.40;;;5.63;;
79644;SDS011;69117;47.148;18.954;2024-02-16T06:57:32;9.82;;;4.10;;
79644;SDS011;69117;47.148;18.954;2024-02-16T07:00:34;10.25;;;5.68;;
79644;SDS011;69117;47.148;18.954;2024-02-16T07:03:36;6.90;;;4.45;;
79644;SDS011;69117;47.148;18.954;2024-02-16T07:06:38;9.70;;;5.22;;
79644;SDS011;69117;47.148;18.954;2024-02-16T07:09:40;13.30;;;6.15;;
79644;SDS011;69117;47.148;18.954;2024-02-16T07:12:43;6.55;;;4.22;;
79644;SDS011;69117;47.148;18.954;2024-02-16T07:15:47;14.43;;;6.85;;
79644;SDS011;69117;47.148;18.954;2024-02-16T07:18:48;14.85;;;7.68;;
79644;SDS011;69117;47.148;18.954;2024-02-16T07:21:50;8.50;;;4.57;;
79644;SDS011;69117;47.148;18.954;2024-02-16T07:24:53;11.95;;;6.72;;
79644;SDS011;69117;47.148;18.954;2024-02-16T07:27:55;9.15;;;5.45;;
79644;SDS011;69117;47.148;18.954;2024-02-16T07:30:57;8.38;;;6.25;;
79644;SDS011;69117;47.148;18.954;2024-02-16T07:33:58;11.10;;;5.80;;
79644;SDS011;69117;47.148;18.954;2024-02-16T07:37:00;9.90;;;5.03;;
79644;SDS011;69117;47.148;18.954;2024-02-16T07:40:02;11.77;;;6.22;;
79644;SDS011;69117;47.148;18.954;2024-02-16T07:43:03;13.32;;;6.40;;
79644;SDS011;69117;47.148;18.954;2024-02-16T07:46:06;12.15;;;5.90;;
79644;SDS011;69117;47.148;18.954;2024-02-16T07:49:09;9.10;;;5.85;;
79644;SDS011;69117;47.148;18.954;2024-02-16T07:52:13;8.15;;;4.97;;
79644;SDS011;69117;47.148;18.954;2024-02-16T07:55:14;10.02;;;5.32;;
79644;SDS011;69117;47.148;18.954;2024-02-16T07:58:18;13.70;;;5.88;;
79644;SDS011;69117;47.148;18.954;2024-02-16T08:01:20;13.23;;;5.78;;
79644;SDS011;69117;47.148;18.954;2024-02-16T08:04:21;10.25;;;4.78;;
79644;SDS011;69117;47.148;18.954;2024-02-16T08:07:23;13.20;;;6.00;;
79644;SDS011;69117;47.148;18.954;2024-02-16T08:10:25;8.30;;;4.63;;
79644;SDS011;69117;47.148;18.954;2024-02-16T08:13:27;10.30;;;5.75;;
79644;SDS011;69117;47.148;18.954;2024-02-16T08:16:29;7.63;;;4.18;;
79644;SDS011;69117;47.148;18.954;2024-02-16T08:19:32;13.68;;;5.18;;
79644;SDS011;69117;47.148;18.954;2024-02-16T08:22:37;10.13;;;4.97;;
79644;SDS011;69117;47.148;18.954;2024-02-16T08:25:39;11.65;;;5.05;;
79644;SDS011;69117;47.148;18.954;2024-02-16T08:28:43;8.60;;;5.45;;
79644;SDS011;69117;47.148;18.954;2024-02-16T08:31:49;10.73;;;3.78;;
79644;SDS011;69117;47.148;18.954;2024-02-16T08:34:52;9.00;;;4.53;;
79644;SDS011;69117;47.148;18.954;2024-02-16T08:37:54;9.25;;;4.38;;
79644;SDS011;69117;47.148;18.954;2024-02-16T08:40:55;7.65;;;3.83;;
79644;SDS011;69117;47.148;18.954;2024-02-16T08:43:57;6.47;;;3.85;;
79644;SDS011;69117;47.148;18.954;2024-02-16T08:46:59;4.47;;;2.63;;
79644;SDS011;69117;47.148;18.954;2024-02-16T08:50:01;7.15;;;3.90;;
79644;SDS011;69117;47.148;18.954;2024-02-16T08:53:04;8.35;;;3.85;;
79644;SDS011;69117;47.148;18.954;2024-02-16T08:56:14;7.65;;;2.97;;
79644;SDS011;69117;47.148;18.954;2024-02-16T08:59:16;7.07;;;4.22;;
79644;SDS011;69117;47.148;18.954;2024-02-16T09:02:18;7.47;;;3.40;;
79644;SDS011;69117;47.148;18.954;2024-02-16T09:05:20;5.78;;;4.70;;
79644;SDS011;69117;47.148;18.954;2024-02-16T09:08:22;7.20;;;3.17;;
79644;SDS011;69117;47.148;18.954;2024-02-16T09:11:23;5.97;;;3.65;;
79644;SDS011;69117;47.148;18.954;2024-02-16T09:14:25;9.23;;;3.92;;
79644;SDS011;69117;47.148;18.954;2024-02-16T09:17:27;6.32;;;3.53;;
79644;SDS011;69117;47.148;18.954;2024-02-16T09:20:28;5.05;;;2.83;;
79644;SDS011;69117;47.148;18.954;2024-02-16T09:23:31;6.57;;;3.70;;
79644;SDS011;69117;47.148;18.954;2024-02-16T09:26:34;5.65;;;3.30;;
79644;SDS011;69117;47.148;18.954;2024-02-16T09:29:35;4.70;;;2.92;;
79644;SDS011;69117;47.148;18.954;2024-02-16T09:32:40;5.82;;;3.22;;
79644;SDS011;69117;47.148;18.954;2024-02-16T09:35:43;10.18;;;4.32;;
79644;SDS011;69117;47.148;18.954;2024-02-16T09:38:45;5.15;;;3.47;;
79644;SDS011;69117;47.148;18.954;2024-02-16T09:41:50;8.00;;;3.97;;
79644;SDS011;69117;47.148;18.954;2024-02-16T09:44:54;6.55;;;3.40;;
79644;SDS011;69117;47.148;18.954;2024-02-16T09:47:56;8.65;;;4.15;;
79644;SDS011;69117;47.148;18.954;2024-02-16T09:51:07;5.82;;;3.17;;
79644;SDS011;69117;47.148;18.954;2024-02-16T09:54:09;8.70;;;4.18;;
79644;SDS011;69117;47.148;18.954;2024-02-16T09:57:11;4.47;;;3.13;;
79644;SDS011;69117;47.148;18.954;2024-02-16T10:00:13;6.70;;;3.83;;
79644;SDS011;69117;47.148;18.954;2024-02-16T10:03:22;7.80;;;3.72;;
79644;SDS011;69117;47.148;18.954;2024-02-16T10:06:27;8.52;;;3.67;;
79644;SDS011;69117;47.148;18.954;2024-02-16T10:09:29;10.82;;;3.90;;
79644;SDS011;69117;47.148;18.954;2024-02-16T10:12:31;5.38;;;3.20;;
79644;SDS011;69117;47.148;18.954;2024-02-16T10:15:33;7.40;;;4.55;;
79644;SDS011;69117;47.148;18.954;2024-02-16T10:18:36;7.95;;;4.75;;
79644;SDS011;69117;47.148;18.954;2024-02-16T10:21:39;5.82;;;4.00;;
79644;SDS011;69117;47.148;18.954;2024-02-16T10:24:41;9.20;;;3.50;;
79644;SDS011;69117;47.148;18.954;2024-02-16T10:27:46;7.68;;;3.67;;
79644;SDS011;69117;47.148;18.954;2024-02-16T10:30:48;6.05;;;3.88;;
79644;SDS011;69117;47.148;18.954;2024-02-16T10:33:50;6.47;;;3.85;;
79644;SDS011;69117;47.148;18.954;2024-02-16T10:36:54;9.32;;;4.20;;
79644;SDS011;69117;47.148;18.954;2024-02-16T10:39:59;6.75;;;4.72;;
79644;SDS011;69117;47.148;18.954;2024-02-16T10:43:02;6.72;;;3.85;;
79644;SDS011;69117;47.148;18.954;2024-02-16T10:46:06;6.55;;;3.83;;
79644;SDS011;69117;47.148;18.954;2024-02-16T10:49:12;5.95;;;3.55;;
79644;SDS011;69117;47.148;18.954;2024-02-16T10:52:15;6.38;;;3.95;;
79644;SDS011;69117;47.148;18.954;2024-02-16T10:55:18;6.15;;;4.53;;
79644;SDS011;69117;47.148;18.954;2024-02-16T10:58:20;6.28;;;3.80;;
79644;SDS011;69117;47.148;18.954;2024-02-16T11:01:23;5.97;;;3.17;;
79644;SDS011;69117;47.148;18.954;2024-02-16T11:04:24;7.03;;;4.05;;
79644;SDS011;69117;47.148;18.954;2024-02-16T11:07:26;4.97;;;3.55;;
79644;SDS011;69117;47.148;18.954;2024-02-16T11:10:28;6.25;;;3.38;;
79644;SDS011;69117;47.148;18.954;2024-02-16T11:13:35;7.35;;;3.92;;
79644;SDS011;69117;47.148;18.954;2024-02-16T11:16:47;5.90;;;3.75;;
79644;SDS011;69117;47.148;18.954;2024-02-16T11:19:49;5.38;;;3.15;;
79644;SDS011;69117;47.148;18.954;2024-02-16T11:22:52;4.32;;;3.22;;
79644;SDS011;69117;47.148;18.954;2024-02-16T11:25:59;8.15;;;3.45;;
79644;SDS011;69117;47.148;18.954;2024-02-16T11:29:03;5.38;;;3.28;;
79644;SDS011;69117;47.148;18.954;2024-02-16T11:32:05;7.75;;;4.10;;
79644;SDS011;69117;47.148;18.954;2024-02-16T11:35:08;6.28;;;4.18;;
79644;SDS011;69117;47.148;18.954;2024-02-16T11:38:10;6.65;;;3.20;;
79644;SDS011;69117;47.148;18.954;2024-02-16T11:41:12;4.07;;;2.75;;
79644;SDS011;69117;47.148;18.954;2024-02-16T11:44:14;8.55;;;3.63;;
79644;SDS011;69117;47.148;18.954;2024-02-16T11:47:20;6.20;;;3.65;;
79644;SDS011;69117;47.148;18.954;2024-02-16T11:50:30;8.85;;;4.50;;
79644;SDS011;69117;47.148;18.954;2024-02-16T11:53:32;5.10;;;3.10;;
79644;SDS011;69117;47.148;18.954;2024-02-16T11:56:34;4.65;;;2.78;;
79644;SDS011;69117;47.148;18.954;2024-02-16T11:59:36;4.55;;;2.67;;
79644;SDS011;69117;47.148;18.954;2024-02-16T12:02:38;6.45;;;3.28;;
79644;SDS011;69117;47.148;18.954;2024-02-16T12:05:40;5.93;;;2.90;;
79644;SDS011;69117;47.148;18.954;2024-02-16T12:09:00;4.10;;;2.72;;
79644;SDS011;69117;47.148;18.954;2024-02-16T12:12:02;4.22;;;2.17;;
79644;SDS011;69117;47.148;18.954;2024-02-16T12:15:05;5.18;;;2.80;;
79644;SDS011;69117;47.148;18.954;2024-02-16T12:18:07;4.38;;;2.50;;
79644;SDS011;69117;47.148;18.954;2024-02-16T12:21:09;3.85;;;2.38;;
79644;SDS011;69117;47.148;18.954;2024-02-16T12:24:11;3.67;;;2.28;;
79644;SDS011;69117;47.148;18.954;2024-02-16T12:27:13;5.10;;;2.88;;
79644;SDS011;69117;47.148;18.954;2024-02-16T12:30:16;7.20;;;3.17;;
79644;SDS011;69117;47.148;18.954;2024-02-16T12:33:18;5.13;;;2.25;;
79644;SDS011;69117;47.148;18.954;2024-02-16T12:36:19;5.70;;;2.90;;
79644;SDS011;69117;47.148;18.954;2024-02-16T12:39:21;6.30;;;3.03;;
79644;SDS011;69117;47.148;18.954;2024-02-16T12:42:23;5.97;;;3.38;;
79644;SDS011;69117;47.148;18.954;2024-02-16T12:45:25;4.88;;;3.05;;
79644;SDS011;69117;47.148;18.954;2024-02-16T12:48:28;6.55;;;2.67;;
79644;SDS011;69117;47.148;18.954;2024-02-16T12:51:30;4.88;;;2.60;;
79644;SDS011;69117;47.148;18.954;2024-02-16T12:54:31;3.97;;;2.47;;
79644;SDS011;69117;47.148;18.954;2024-02-16T12:57:34;4.20;;;2.70;;
79644;SDS011;69117;47.148;18.954;2024-02-16T13:00:36;5.55;;;2.92;;
79644;SDS011;69117;47.148;18.954;2024-02-16T13:03:38;4.72;;;2.75;;
79644;SDS011;69117;47.148;18.954;2024-02-16T13:06:40;4.05;;;2.65;;
79644;SDS011;69117;47.148;18.954;2024-02-16T13:09:42;3.92;;;2.33;;
79644;SDS011;69117;47.148;18.954;2024-02-16T13:12:44;4.72;;;2.65;;
79644;SDS011;69117;47.148;18.954;2024-02-16T13:15:46;4.30;;;2.75;;
79644;SDS011;69117;47.148;18.954;2024-02-16T13:18:48;5.05;;;2.42;;
79644;SDS011;69117;47.148;18.954;2024-02-16T13:21:50;3.70;;;1.88;;
79644;SDS011;69117;47.148;18.954;2024-02-16T13:24:52;4.32;;;2.75;;
79644;SDS011;69117;47.148;18.954;2024-02-16T13:27:54;4.50;;;2.58;;
79644;SDS011;69117;47.148;18.954;2024-02-16T13:30:55;5.60;;;2.72;;
79644;SDS011;69117;47.148;18.954;2024-02-16T13:33:57;6.13;;;2.60;;
79644;SDS011;69117;47.148;18.954;2024-02-16T13:36:59;5.75;;;2.72;;
79644;SDS011;69117;47.148;18.954;2024-02-16T13:40:02;4.57;;;2.35;;
79644;SDS011;69117;47.148;18.954;2024-02-16T13:43:08;4.00;;;2.47;;
79644;SDS011;69117;47.148;18.954;2024-02-16T13:46:10;3.78;;;2.15;;
79644;SDS011;69117;47.148;18.954;2024-02-16T13:49:12;4.90;;;2.60;;
79644;SDS011;69117;47.148;18.954;2024-02-16T13:52:13;4.50;;;2.42;;
79644;SDS011;69117;47.148;18.954;2024-02-16T13:55:15;4.10;;;2.33;;
79644;SDS011;69117;47.148;18.954;2024-02-16T13:58:17;6.20;;;2.67;;
79644;SDS011;69117;47.148;18.954;2024-02-16T14:01:19;3.25;;;2.22;;
79644;SDS011;69117;47.148;18.954;2024-02-16T14:04:20;4.18;;;1.85;;
79644;SDS011;69117;47.148;18.954;2024-02-16T14:07:24;5.38;;;2.58;;
79644;SDS011;69117;47.148;18.954;2024-02-16T14:10:25;4.97;;;2.20;;
79644;SDS011;69117;47.148;18.954;2024-02-16T14:13:27;6.05;;;2.35;;
79644;SDS011;69117;47.148;18.954;2024-02-16T14:16:30;4.78;;;2.35;;
79644;SDS011;69117;47.148;18.954;2024-02-16T14:19:31;4.88;;;2.50;;
79644;SDS011;69117;47.148;18.954;2024-02-16T14:22:35;3.17;;;1.77;;
79644;SDS011;69117;47.148;18.954;2024-02-16T14:25:37;2.95;;;1.75;;
79644;SDS011;69117;47.148;18.954;2024-02-16T14:28:41;4.72;;;2.17;;
79644;SDS011;69117;47.148;18.954;2024-02-16T14:31:43;4.15;;;1.92;;
79644;SDS011;69117;47.148;18.954;2024-02-16T14:34:44;4.90;;;2.45;;
79644;SDS011;69117;47.148;18.954;2024-02-16T14:37:46;4.15;;;2.05;;
79644;SDS011;69117;47.148;18.954;2024-02-16T14:40:48;3.75;;;1.60;;
79644;SDS011;69117;47.148;18.954;2024-02-16T14:43:49;3.85;;;2.10;;
79644;SDS011;69117;47.148;18.954;2024-02-16T14:46:51;5.35;;;2.42;;
79644;SDS011;69117;47.148;18.954;2024-02-16T14:49:53;5.07;;;2.42;;
79644;SDS011;69117;47.148;18.954;2024-02-16T14:52:55;4.97;;;2.38;;
79644;SDS011;69117;47.148;18.954;2024-02-16T14:55:57;3.58;;;1.83;;
79644;SDS011;69117;47.148;18.954;2024-02-16T14:59:00;4.78;;;2.28;;
79644;SDS011;69117;47.148;18.954;2024-02-16T15:02:01;2.67;;;1.88;;
79644;SDS011;69117;47.148;18.954;2024-02-16T15:05:06;4.78;;;2.58;;
79644;SDS011;69117;47.148;18.954;2024-02-16T15:08:08;5.60;;;3.42;;
79644;SDS011;69117;47.148;18.954;2024-02-16T15:11:11;4.53;;;2.13;;
79644;SDS011;69117;47.148;18.954;2024-02-16T15:14:12;3.63;;;2.20;;
79644;SDS011;69117;47.148;18.954;2024-02-16T15:17:18;2.97;;;1.45;;
79644;SDS011;69117;47.148;18.954;2024-02-16T15:20:21;3.88;;;1.98;;
79644;SDS011;69117;47.148;18.954;2024-02-16T15:23:24;5.20;;;2.30;;
79644;SDS011;69117;47.148;18.954;2024-02-16T15:26:26;6.97;;;2.80;;
79644;SDS011;69117;47.148;18.954;2024-02-16T15:29:28;5.60;;;2.25;;
79644;SDS011;69117;47.148;18.954;2024-02-16T15:32:29;2.65;;;2.03;;
79644;SDS011;69117;47.148;18.954;2024-02-16T15:35:32;4.45;;;1.92;;
79644;SDS011;69117;47.148;18.954;2024-02-16T15:38:34;2.72;;;2.05;;
79644;SDS011;69117;47.148;18.954;2024-02-16T15:41:35;5.45;;;2.20;;
79644;SDS011;69117;47.148;18.954;2024-02-16T15:44:37;3.55;;;1.80;;
79644;SDS011;69117;47.148;18.954;2024-02-16T15:47:39;3.72;;;1.77;;
79644;SDS011;69117;47.148;18.954;2024-02-16T15:50:41;6.18;;;2.28;;
79644;SDS011;69117;47.148;18.954;2024-02-16T15:53:43;3.70;;;2.03;;
79644;SDS011;69117;47.148;18.954;2024-02-16T15:56:44;3.03;;;1.55;;
79644;SDS011;69117;47.148;18.954;2024-02-16T15:59:46;4.88;;;1.80;;
79644;SDS011;69117;47.148;18.954;2024-02-16T16:02:48;3.72;;;1.85;;
79644;SDS011;69117;47.148;18.954;2024-02-16T16:05:49;2.42;;;1.33;;
79644;SDS011;69117;47.148;18.954;2024-02-16T16:08:52;3.65;;;2.17;;
79644;SDS011;69117;47.148;18.954;2024-02-16T16:11:56;2.88;;;1.30;;
79644;SDS011;69117;47.148;18.954;2024-02-16T16:14:57;4.35;;;1.75;;
79644;SDS011;69117;47.148;18.954;2024-02-16T16:17:59;6.53;;;3.00;;
79644;SDS011;69117;47.148;18.954;2024-02-16T16:21:01;3.40;;;1.60;;
79644;SDS011;69117;47.148;18.954;2024-02-16T16:24:05;6.60;;;2.17;;
79644;SDS011;69117;47.148;18.954;2024-02-16T16:27:10;4.32;;;1.40;;
79644;SDS011;69117;47.148;18.954;2024-02-16T16:30:13;3.00;;;1.13;;
79644;SDS011;69117;47.148;18.954;2024-02-16T16:33:16;2.40;;;1.60;;
79644;SDS011;69117;47.148;18.954;2024-02-16T16:36:18;5.40;;;2.53;;
79644;SDS011;69117;47.148;18.954;2024-02-16T16:39:22;4.13;;;1.83;;
79644;SDS011;69117;47.148;18.954;2024-02-16T16:42:26;3.78;;;1.88;;
79644;SDS011;69117;47.148;18.954;2024-02-16T16:45:27;2.40;;;1.52;;
79644;SDS011;69117;47.148;18.954;2024-02-16T16:48:30;3.42;;;1.55;;
79644;SDS011;69117;47.148;18.954;2024-02-16T16:51:32;2.75;;;1.77;;
79644;SDS011;69117;47.148;18.954;2024-02-16T16:54:34;4.25;;;1.85;;
79644;SDS011;69117;47.148;18.954;2024-02-16T16:57:37;5.43;;;2.17;;
79644;SDS011;69117;47.148;18.954;2024-02-16T17:00:39;1.67;;;1.25;;
79644;SDS011;69117;47.148;18.954;2024-02-16T17:03:41;5.32;;;2.08;;
79644;SDS011;69117;47.148;18.954;2024-02-16T17:06:43;5.75;;;2.13;;
79644;SDS011;69117;47.148;18.954;2024-02-16T17:09:45;4.72;;;2.08;;
79644;SDS011;69117;47.148;18.954;2024-02-16T17:12:47;6.45;;;2.25;;
79644;SDS011;69117;47.148;18.954;2024-02-16T17:15:49;3.17;;;2.13;;
79644;SDS011;69117;47.148;18.954;2024-02-16T17:18:53;2.97;;;1.70;;
79644;SDS011;69117;47.148;18.954;2024-02-16T17:21:55;4.25;;;2.28;;
79644;SDS011;69117;47.148;18.954;2024-02-16T17:24:56;4.88;;;2.38;;
79644;SDS011;69117;47.148;18.954;2024-02-16T17:27:58;3.97;;;1.85;;
79644;SDS011;69117;47.148;18.954;2024-02-16T17:31:00;3.05;;;1.80;;
79644;SDS011;69117;47.148;18.954;2024-02-16T17:34:02;3.60;;;2.20;;
79644;SDS011;69117;47.148;18.954;2024-02-16T17:37:09;3.58;;;1.73;;
79644;SDS011;69117;47.148;18.954;2024-02-16T17:40:11;4.25;;;2.08;;
79644;SDS011;69117;47.148;18.954;2024-02-16T17:43:14;6.90;;;2.17;;
79644;SDS011;69117;47.148;18.954;2024-02-16T17:46:18;2.78;;;1.50;;
79644;SDS011;69117;47.148;18.954;2024-02-16T17:49:20;6.85;;;2.40;;
79644;SDS011;69117;47.148;18.954;2024-02-16T17:52:26;4.85;;;2.92;;
79644;SDS011;69117;47.148;18.954;2024-02-16T17:55:27;3.88;;;1.38;;
79644;SDS011;69117;47.148;18.954;2024-02-16T17:58:29;2.70;;;1.60;;
79644;SDS011;69117;47.148;18.954;2024-02-16T18:01:32;3.63;;;2.08;;
79644;SDS011;69117;47.148;18.954;2024-02-16T18:04:34;3.00;;;1.83;;
79644;SDS011;69117;47.148;18.954;2024-02-16T18:07:35;2.75;;;1.65;;
79644;SDS011;69117;47.148;18.954;2024-02-16T18:10:37;4.22;;;2.17;;
79644;SDS011;69117;47.148;18.954;2024-02-16T18:13:39;3.95;;;1.67;;
79644;SDS011;69117;47.148;18.954;2024-02-16T18:16:42;5.85;;;2.50;;
79644;SDS011;69117;47.148;18.954;2024-02-16T18:19:43;3.97;;;2.03;;
79644;SDS011;69117;47.148;18.954;2024-02-16T18:22:46;4.32;;;2.05;;
79644;SDS011;69117;47.148;18.954;2024-02-16T18:25:48;4.80;;;1.70;;
79644;SDS011;69117;47.148;18.954;2024-02-16T18:28:52;6.95;;;2.45;;
79644;SDS011;69117;47.148;18.954;2024-02-16T18:31:53;3.72;;;2.17;;